Friendship, North Carolina
Current Conditions -  °F | °C
As of 7:54 AM on Friday 31 Oct 2014 (Local Time) from KGSO Reporting Station
Scattered Clouds Scattered Clouds  
Wind Chill: 38°   Ceiling: Unl
Heat Index: 41°   Visibility: 10mi
Dew Point: 35°   Wind: 5mph
Humidity: 79%   Direction: 350°N
Pressure: 29.96"   Gusts: NA
Location:  36.1197°N, 79.8944°W
Report Text: KGSO 311154Z 35004KT 10SM SCT026 05/02 A2996 RMK AO2 SLP144 T00500017 10072 20044 56005
Loading
Personal Weather Stations






























Interactive Weather Map
Tropical Storm Tracking
New forecast layout! Learn more

10-Day Weather Forecast

Advertisements
Track Severe Weather on mobile